sensor_id;sensor_type;location;lat;lon;timestamp;pressure;altitude;pressure_sealevel;temperature;humidity
45864;BME280;31579;52.354;16.974;2023-07-08T00:00:54;-124.3;;;-146.1;100.0
45864;BME280;31579;52.354;16.974;2023-07-08T00:01:58;-132.3;;;-146.1;100.0
45864;BME280;31579;52.354;16.974;2023-07-08T00:03:15;-124.2;;;-146.1;100.0
45864;BME280;31579;52.354;16.974;2023-07-08T00:04:19;-130.4;;;-146.1;100.0
45864;BME280;31579;52.354;16.974;2023-07-08T00:05:23;-128.7;;;-146.1;100.0
45864;BME280;31579;52.354;16.974;2023-07-08T00:06:28;-128.5;;;-146.1;100.0
45864;BME280;31579;52.354;16.974;2023-07-08T00:07:32;-128.0;;;-146.1;100.0
45864;BME280;31579;52.354;16.974;2023-07-08T00:08:36;-127.8;;;-146.1;100.0
45864;BME280;31579;52.354;16.974;2023-07-08T00:09:40;-126.5;;;-146.1;100.0
45864;BME280;31579;52.354;16.974;2023-07-08T00:10:44;-124.9;;;-146.1;100.0
45864;BME280;31579;52.354;16.974;2023-07-08T00:11:48;-122.5;;;-146.1;100.0
45864;BME280;31579;52.354;16.974;2023-07-08T00:12:53;-121.3;;;-146.1;100.0
45864;BME280;31579;52.354;16.974;2023-07-08T00:13:56;-119.5;;;-146.1;100.0
45864;BME280;31579;52.354;16.974;2023-07-08T00:15:00;-119.0;;;-146.1;100.0
45864;BME280;31579;52.354;16.974;2023-07-08T00:16:06;-119.1;;;-146.1;100.0
45864;BME280;31579;52.354;16.974;2023-07-08T00:17:11;-118.7;;;-146.1;100.0
45864;BME280;31579;52.354;16.974;2023-07-08T00:18:14;-100.9;;;-146.1;100.0
45864;BME280;31579;52.354;16.974;2023-07-08T00:19:14;-74.9;;;-146.1;100.0
45864;BME280;31579;52.354;16.974;2023-07-08T00:20:32;-118.2;;;-146.1;100.0
45864;BME280;31579;52.354;16.974;2023-07-08T00:21:22;-119.3;;;-146.1;100.0
45864;BME280;31579;52.354;16.974;2023-07-08T00:22:26;-120.3;;;-146.1;100.0
45864;BME280;31579;52.354;16.974;2023-07-08T00:23:30;-120.8;;;-146.1;100.0
45864;BME280;31579;52.354;16.974;2023-07-08T00:24:34;-120.9;;;-146.1;100.0
45864;BME280;31579;52.354;16.974;2023-07-08T00:25:38;-119.8;;;-146.1;100.0
45864;BME280;31579;52.354;16.974;2023-07-08T00:26:42;-117.8;;;-146.1;100.0
45864;BME280;31579;52.354;16.974;2023-07-08T00:27:47;-115.9;;;-146.1;100.0
45864;BME280;31579;52.354;16.974;2023-07-08T00:28:51;-113.9;;;-146.1;100.0
45864;BME280;31579;52.354;16.974;2023-07-08T00:29:54;-114.4;;;-146.1;100.0
45864;BME280;31579;52.354;16.974;2023-07-08T00:30:58;-114.3;;;-146.1;100.0
45864;BME280;31579;52.354;16.974;2023-07-08T00:32:07;-114.3;;;-146.1;100.0
45864;BME280;31579;52.354;16.974;2023-07-08T00:33:06;-111.9;;;-146.1;100.0
45864;BME280;31579;52.354;16.974;2023-07-08T00:34:10;-107.8;;;-146.1;100.0
45864;BME280;31579;52.354;16.974;2023-07-08T00:35:24;-129.5;;;-146.1;100.0
45864;BME280;31579;52.354;16.974;2023-07-08T00:36:27;-104.8;;;-146.1;100.0
45864;BME280;31579;52.354;16.974;2023-07-08T00:37:30;-101.6;;;-146.1;100.0
45864;BME280;31579;52.354;16.974;2023-07-08T00:38:34;-99.7;;;-146.1;100.0
45864;BME280;31579;52.354;16.974;2023-07-08T00:39:39;-100.2;;;-146.1;100.0
45864;BME280;31579;52.354;16.974;2023-07-08T00:41:46;-99.9;;;-146.1;100.0
45864;BME280;31579;52.354;16.974;2023-07-08T00:42:50;-100.0;;;-146.1;100.0
45864;BME280;31579;52.354;16.974;2023-07-08T00:43:55;-97.8;;;-146.1;100.0
45864;BME280;31579;52.354;16.974;2023-07-08T00:44:58;-93.9;;;-146.1;100.0
45864;BME280;31579;52.354;16.974;2023-07-08T00:46:08;-88.6;;;-146.1;100.0
45864;BME280;31579;52.354;16.974;2023-07-08T00:47:09;-83.7;;;-146.1;100.0
45864;BME280;31579;52.354;16.974;2023-07-08T00:49:22;-73.2;;;-146.1;100.0
45864;BME280;31579;52.354;16.974;2023-07-08T00:50:20;-93.1;;;-146.1;100.0
45864;BME280;31579;52.354;16.974;2023-07-08T00:51:23;-37.4;;;-146.1;100.0
45864;BME280;31579;52.354;16.974;2023-07-08T00:52:27;-63.2;;;-146.1;100.0
45864;BME280;31579;52.354;16.974;2023-07-08T00:53:32;-61.7;;;-146.1;100.0
45864;BME280;31579;52.354;16.974;2023-07-08T00:54:34;-59.7;;;-146.1;100.0
45864;BME280;31579;52.354;16.974;2023-07-08T00:55:38;-56.4;;;-146.1;100.0
45864;BME280;31579;52.354;16.974;2023-07-08T00:57:46;-55.1;;;-146.1;100.0
45864;BME280;31579;52.354;16.974;2023-07-08T00:58:55;-55.5;;;-146.1;100.0
45864;BME280;31579;52.354;16.974;2023-07-08T01:00:02;-55.9;;;-146.1;100.0
45864;BME280;31579;52.354;16.974;2023-07-08T01:00:58;-58.0;;;-146.1;100.0
45864;BME280;31579;52.354;16.974;2023-07-08T01:02:04;-58.1;;;-146.1;100.0
45864;BME280;31579;52.354;16.974;2023-07-08T01:03:06;-57.5;;;-146.1;100.0
45864;BME280;31579;52.354;16.974;2023-07-08T01:04:12;-56.9;;;-146.1;100.0
45864;BME280;31579;52.354;16.974;2023-07-08T01:05:18;-55.8;;;-146.1;100.0
45864;BME280;31579;52.354;16.974;2023-07-08T01:06:19;-55.2;;;-146.1;100.0
45864;BME280;31579;52.354;16.974;2023-07-08T01:07:24;-55.0;;;-146.1;100.0
45864;BME280;31579;52.354;16.974;2023-07-08T01:08:27;-54.8;;;-146.1;100.0
45864;BME280;31579;52.354;16.974;2023-07-08T01:09:31;-53.3;;;-146.1;100.0
45864;BME280;31579;52.354;16.974;2023-07-08T01:10:34;21.8;;;-146.1;100.0
45864;BME280;31579;52.354;16.974;2023-07-08T01:11:38;-48.2;;;-146.1;100.0
45864;BME280;31579;52.354;16.974;2023-07-08T01:12:43;-45.1;;;-146.1;100.0
45864;BME280;31579;52.354;16.974;2023-07-08T01:13:45;-40.7;;;-146.1;100.0
45864;BME280;31579;52.354;16.974;2023-07-08T01:14:50;-36.2;;;-146.1;100.0
45864;BME280;31579;52.354;16.974;2023-07-08T01:15:53;-31.2;;;-146.1;100.0
45864;BME280;31579;52.354;16.974;2023-07-08T01:16:58;-25.7;;;-146.1;100.0
45864;BME280;31579;52.354;16.974;2023-07-08T01:18:02;-20.8;;;-146.1;100.0
45864;BME280;31579;52.354;16.974;2023-07-08T01:19:06;-17.1;;;-146.1;100.0
45864;BME280;31579;52.354;16.974;2023-07-08T01:20:10;-14.2;;;-146.1;100.0
45864;BME280;31579;52.354;16.974;2023-07-08T01:21:32;-16.0;;;-146.1;100.0
45864;BME280;31579;52.354;16.974;2023-07-08T01:22:35;-11.9;;;-146.1;100.0
45864;BME280;31579;52.354;16.974;2023-07-08T01:23:39;-7.3;;;-146.1;100.0
45864;BME280;31579;52.354;16.974;2023-07-08T01:24:43;-7.2;;;-146.1;100.0
45864;BME280;31579;52.354;16.974;2023-07-08T01:25:47;-4.2;;;-146.1;100.0
45864;BME280;31579;52.354;16.974;2023-07-08T01:26:51;-0.8;;;-146.1;100.0
45864;BME280;31579;52.354;16.974;2023-07-08T01:27:55;2.4;;;-146.1;100.0
45864;BME280;31579;52.354;16.974;2023-07-08T01:28:59;5.8;;;-146.1;100.0
45864;BME280;31579;52.354;16.974;2023-07-08T01:30:04;8.0;;;-146.1;100.0
45864;BME280;31579;52.354;16.974;2023-07-08T01:31:07;9.8;;;-146.1;100.0
45864;BME280;31579;52.354;16.974;2023-07-08T01:32:11;12.4;;;-146.1;100.0
45864;BME280;31579;52.354;16.974;2023-07-08T01:33:17;15.5;;;-146.1;100.0
45864;BME280;31579;52.354;16.974;2023-07-08T01:34:20;16.9;;;-146.1;100.0
45864;BME280;31579;52.354;16.974;2023-07-08T01:35:24;20.5;;;-146.1;100.0
45864;BME280;31579;52.354;16.974;2023-07-08T01:36:29;21.7;;;-146.1;100.0
45864;BME280;31579;52.354;16.974;2023-07-08T01:38:37;29.7;;;-146.1;100.0
45864;BME280;31579;52.354;16.974;2023-07-08T01:39:42;32.1;;;-146.1;100.0
45864;BME280;31579;52.354;16.974;2023-07-08T01:40:48;35.1;;;-146.1;100.0
45864;BME280;31579;52.354;16.974;2023-07-08T01:41:50;37.8;;;-146.1;100.0
45864;BME280;31579;52.354;16.974;2023-07-08T01:42:54;40.4;;;-146.1;100.0
45864;BME280;31579;52.354;16.974;2023-07-08T01:43:58;44.1;;;-146.1;100.0
45864;BME280;31579;52.354;16.974;2023-07-08T01:45:06;46.8;;;-146.1;100.0
45864;BME280;31579;52.354;16.974;2023-07-08T01:47:13;52.7;;;-146.1;100.0
45864;BME280;31579;52.354;16.974;2023-07-08T01:48:15;57.4;;;-146.1;100.0
45864;BME280;31579;52.354;16.974;2023-07-08T01:49:18;59.6;;;-146.1;100.0
45864;BME280;31579;52.354;16.974;2023-07-08T01:50:22;63.6;;;-146.1;100.0
45864;BME280;31579;52.354;16.974;2023-07-08T01:51:25;187.1;;;-146.1;100.0
45864;BME280;31579;52.354;16.974;2023-07-08T01:52:28;70.3;;;-146.1;100.0
45864;BME280;31579;52.354;16.974;2023-07-08T01:53:34;126.9;;;-146.1;100.0
45864;BME280;31579;52.354;16.974;2023-07-08T01:54:35;69.5;;;-146.1;100.0
45864;BME280;31579;52.354;16.974;2023-07-08T01:55:39;69.6;;;-146.1;100.0
45864;BME280;31579;52.354;16.974;2023-07-08T01:56:43;70.2;;;-146.1;100.0
45864;BME280;31579;52.354;16.974;2023-07-08T01:57:47;73.6;;;-146.1;100.0
45864;BME280;31579;52.354;16.974;2023-07-08T01:58:51;78.3;;;-146.1;100.0
45864;BME280;31579;52.354;16.974;2023-07-08T01:59:55;80.3;;;-146.1;100.0
45864;BME280;31579;52.354;16.974;2023-07-08T02:00:59;81.9;;;-146.1;100.0
45864;BME280;31579;52.354;16.974;2023-07-08T02:02:03;87.2;;;-146.1;100.0
45864;BME280;31579;52.354;16.974;2023-07-08T02:03:07;90.7;;;-146.1;100.0
45864;BME280;31579;52.354;16.974;2023-07-08T02:04:11;92.5;;;-146.1;100.0
45864;BME280;31579;52.354;16.974;2023-07-08T02:05:15;94.3;;;-146.1;100.0
45864;BME280;31579;52.354;16.974;2023-07-08T02:06:19;98.2;;;-146.1;100.0
45864;BME280;31579;52.354;16.974;2023-07-08T02:07:23;99.6;;;-146.1;100.0
45864;BME280;31579;52.354;16.974;2023-07-08T02:08:28;53.2;;;-146.1;100.0
45864;BME280;31579;52.354;16.974;2023-07-08T02:09:31;175.7;;;-146.1;100.0
45864;BME280;31579;52.354;16.974;2023-07-08T02:10:36;121.8;;;-146.1;100.0
45864;BME280;31579;52.354;16.974;2023-07-08T02:11:39;119.8;;;-146.1;100.0
45864;BME280;31579;52.354;16.974;2023-07-08T02:12:43;123.9;;;-146.1;100.0
45864;BME280;31579;52.354;16.974;2023-07-08T02:13:47;128.7;;;-146.1;100.0
45864;BME280;31579;52.354;16.974;2023-07-08T02:14:51;132.2;;;-146.1;100.0
45864;BME280;31579;52.354;16.974;2023-07-08T02:15:55;140.3;;;-146.1;100.0
45864;BME280;31579;52.354;16.974;2023-07-08T02:16:59;147.2;;;-146.1;100.0
45864;BME280;31579;52.354;16.974;2023-07-08T02:18:03;155.8;;;-146.1;100.0
45864;BME280;31579;52.354;16.974;2023-07-08T02:19:07;163.0;;;-146.1;100.0
45864;BME280;31579;52.354;16.974;2023-07-08T02:20:11;169.8;;;-146.1;100.0
45864;BME280;31579;52.354;16.974;2023-07-08T02:21:15;180.1;;;-146.1;100.0
45864;BME280;31579;52.354;16.974;2023-07-08T02:22:19;191.6;;;-146.1;100.0
45864;BME280;31579;52.354;16.974;2023-07-08T02:23:21;315.7;;;-146.1;100.0
45864;BME280;31579;52.354;16.974;2023-07-08T02:24:24;322.7;;;-146.1;100.0
45864;BME280;31579;52.354;16.974;2023-07-08T02:25:28;230.1;;;-146.1;100.0
45864;BME280;31579;52.354;16.974;2023-07-08T02:26:39;171.3;;;-146.1;100.0
45864;BME280;31579;52.354;16.974;2023-07-08T02:27:43;217.1;;;-146.1;100.0
45864;BME280;31579;52.354;16.974;2023-07-08T02:28:47;235.6;;;-146.1;100.0
45864;BME280;31579;52.354;16.974;2023-07-08T02:29:51;249.1;;;-146.1;100.0
45864;BME280;31579;52.354;16.974;2023-07-08T02:30:55;257.5;;;-146.1;100.0
45864;BME280;31579;52.354;16.974;2023-07-08T02:31:59;266.1;;;-146.1;100.0
45864;BME280;31579;52.354;16.974;2023-07-08T02:33:03;270.8;;;-146.1;100.0
45864;BME280;31579;52.354;16.974;2023-07-08T02:34:07;273.1;;;-146.1;100.0
45864;BME280;31579;52.354;16.974;2023-07-08T02:35:11;273.9;;;-146.1;100.0
45864;BME280;31579;52.354;16.974;2023-07-08T02:36:15;273.2;;;-146.1;100.0
45864;BME280;31579;52.354;16.974;2023-07-08T02:37:19;271.7;;;-146.1;100.0
45864;BME280;31579;52.354;16.974;2023-07-08T02:38:23;269.6;;;-146.1;100.0
45864;BME280;31579;52.354;16.974;2023-07-08T02:39:27;266.6;;;-146.1;100.0
45864;BME280;31579;52.354;16.974;2023-07-08T02:40:32;263.0;;;-146.1;100.0
45864;BME280;31579;52.354;16.974;2023-07-08T02:41:35;321.5;;;-146.1;100.0
45864;BME280;31579;52.354;16.974;2023-07-08T02:42:37;322.0;;;-146.1;100.0
45864;BME280;31579;52.354;16.974;2023-07-08T02:43:40;301.5;;;-146.1;100.0
45864;BME280;31579;52.354;16.974;2023-07-08T02:44:44;260.1;;;-146.1;100.0
45864;BME280;31579;52.354;16.974;2023-07-08T02:45:49;256.8;;;-146.1;100.0
45864;BME280;31579;52.354;16.974;2023-07-08T02:46:52;256.7;;;-146.1;100.0
45864;BME280;31579;52.354;16.974;2023-07-08T02:47:56;257.5;;;-146.1;100.0
45864;BME280;31579;52.354;16.974;2023-07-08T02:49:00;263.4;;;-146.1;100.0
45864;BME280;31579;52.354;16.974;2023-07-08T02:50:05;269.1;;;-146.1;100.0
45864;BME280;31579;52.354;16.974;2023-07-08T02:51:08;277.3;;;-146.1;100.0
45864;BME280;31579;52.354;16.974;2023-07-08T02:52:12;288.1;;;-146.1;100.0
45864;BME280;31579;52.354;16.974;2023-07-08T02:53:16;297.4;;;-146.1;100.0
45864;BME280;31579;52.354;16.974;2023-07-08T02:54:20;306.7;;;-146.1;100.0
45864;BME280;31579;52.354;16.974;2023-07-08T02:55:24;317.0;;;-146.1;100.0
45864;BME280;31579;52.354;16.974;2023-07-08T02:56:28;322.6;;;-146.1;100.0
45864;BME280;31579;52.354;16.974;2023-07-08T02:57:32;325.5;;;-146.1;100.0
45864;BME280;31579;52.354;16.974;2023-07-08T02:58:38;275.0;;;-146.1;100.0
45864;BME280;31579;52.354;16.974;2023-07-08T02:59:40;356.8;;;-146.1;100.0
45864;BME280;31579;52.354;16.974;2023-07-08T03:00:44;331.8;;;-146.1;100.0
45864;BME280;31579;52.354;16.974;2023-07-08T03:01:48;332.3;;;-146.1;100.0
45864;BME280;31579;52.354;16.974;2023-07-08T03:02:52;332.6;;;-146.1;100.0
45864;BME280;31579;52.354;16.974;2023-07-08T03:03:56;332.0;;;-146.1;100.0
45864;BME280;31579;52.354;16.974;2023-07-08T03:05:00;333.4;;;-146.1;100.0
45864;BME280;31579;52.354;16.974;2023-07-08T03:06:04;334.1;;;-146.1;100.0
45864;BME280;31579;52.354;16.974;2023-07-08T03:07:08;334.2;;;-146.1;100.0
45864;BME280;31579;52.354;16.974;2023-07-08T03:08:12;333.8;;;-146.1;100.0
45864;BME280;31579;52.354;16.974;2023-07-08T03:09:16;330.4;;;-146.1;100.0
45864;BME280;31579;52.354;16.974;2023-07-08T03:10:20;330.8;;;-146.1;100.0
45864;BME280;31579;52.354;16.974;2023-07-08T03:11:24;332.7;;;-146.1;100.0
45864;BME280;31579;52.354;16.974;2023-07-08T03:12:28;335.5;;;-146.1;100.0
45864;BME280;31579;52.354;16.974;2023-07-08T03:13:32;335.8;;;-146.1;100.0
45864;BME280;31579;52.354;16.974;2023-07-08T03:14:37;295.9;;;-146.1;100.0
45864;BME280;31579;52.354;16.974;2023-07-08T03:15:40;354.6;;;-146.1;100.0
45864;BME280;31579;52.354;16.974;2023-07-08T03:16:44;337.5;;;-146.1;100.0
45864;BME280;31579;52.354;16.974;2023-07-08T03:17:49;337.4;;;-146.1;100.0
45864;BME280;31579;52.354;16.974;2023-07-08T03:18:53;338.4;;;-146.1;100.0
45864;BME280;31579;52.354;16.974;2023-07-08T03:19:57;339.0;;;-146.1;100.0
45864;BME280;31579;52.354;16.974;2023-07-08T03:21:01;339.8;;;-146.1;100.0
45864;BME280;31579;52.354;16.974;2023-07-08T03:22:05;342.2;;;-146.1;100.0
45864;BME280;31579;52.354;16.974;2023-07-08T03:23:09;342.1;;;-146.1;100.0
45864;BME280;31579;52.354;16.974;2023-07-08T03:24:13;342.1;;;-146.1;100.0
45864;BME280;31579;52.354;16.974;2023-07-08T03:25:17;341.1;;;-146.1;100.0
45864;BME280;31579;52.354;16.974;2023-07-08T03:26:22;340.4;;;-146.1;100.0
45864;BME280;31579;52.354;16.974;2023-07-08T03:27:25;340.5;;;-146.1;100.0
45864;BME280;31579;52.354;16.974;2023-07-08T03:28:27;371.2;;;-146.1;100.0
45864;BME280;31579;52.354;16.974;2023-07-08T03:29:30;366.2;;;-146.1;100.0
45864;BME280;31579;52.354;16.974;2023-07-08T03:30:35;325.8;;;-146.1;100.0
45864;BME280;31579;52.354;16.974;2023-07-08T03:31:37;375.9;;;-146.1;100.0
45864;BME280;31579;52.354;16.974;2023-07-08T03:32:40;366.7;;;-146.1;100.0
45864;BME280;31579;52.354;16.974;2023-07-08T03:33:44;348.4;;;-146.1;100.0
45864;BME280;31579;52.354;16.974;2023-07-08T03:34:48;344.4;;;-146.1;100.0
45864;BME280;31579;52.354;16.974;2023-07-08T03:35:52;341.4;;;-146.1;100.0
45864;BME280;31579;52.354;16.974;2023-07-08T03:36:56;335.2;;;-146.1;100.0
45864;BME280;31579;52.354;16.974;2023-07-08T03:38:00;333.5;;;-146.1;100.0
45864;BME280;31579;52.354;16.974;2023-07-08T03:39:05;330.7;;;-146.1;100.0
45864;BME280;31579;52.354;16.974;2023-07-08T03:40:10;327.6;;;-146.1;100.0
45864;BME280;31579;52.354;16.974;2023-07-08T03:41:13;327.4;;;-146.1;100.0
45864;BME280;31579;52.354;16.974;2023-07-08T03:42:18;329.1;;;-146.1;100.0
45864;BME280;31579;52.354;16.974;2023-07-08T03:43:22;329.7;;;-146.1;100.0
45864;BME280;31579;52.354;16.974;2023-07-08T03:44:26;329.1;;;-146.1;100.0
45864;BME280;31579;52.354;16.974;2023-07-08T03:45:30;329.1;;;-146.1;100.0
45864;BME280;31579;52.354;16.974;2023-07-08T03:46:35;296.3;;;-146.1;100.0
45864;BME280;31579;52.354;16.974;2023-07-08T03:47:37;347.0;;;-146.1;100.0
45864;BME280;31579;52.354;16.974;2023-07-08T03:48:40;337.8;;;-146.1;100.0
45864;BME280;31579;52.354;16.974;2023-07-08T03:49:44;319.9;;;-146.1;100.0
45864;BME280;31579;52.354;16.974;2023-07-08T03:50:48;317.2;;;-146.1;100.0
45864;BME280;31579;52.354;16.974;2023-07-08T03:51:53;315.5;;;-146.1;100.0
45864;BME280;31579;52.354;16.974;2023-07-08T03:52:57;317.1;;;-146.1;100.0
45864;BME280;31579;52.354;16.974;2023-07-08T03:54:01;318.6;;;-146.1;100.0
45864;BME280;31579;52.354;16.974;2023-07-08T03:55:06;319.4;;;-146.1;100.0
45864;BME280;31579;52.354;16.974;2023-07-08T03:56:11;320.7;;;-146.1;100.0
45864;BME280;31579;52.354;16.974;2023-07-08T03:57:13;322.2;;;-146.1;100.0
45864;BME280;31579;52.354;16.974;2023-07-08T03:58:17;325.2;;;-146.1;100.0
45864;BME280;31579;52.354;16.974;2023-07-08T03:59:21;327.3;;;-146.1;100.0
45864;BME280;31579;52.354;16.974;2023-07-08T04:00:25;331.3;;;-146.1;100.0
45864;BME280;31579;52.354;16.974;2023-07-08T04:01:27;359.2;;;-146.1;100.0
45864;BME280;31579;52.354;16.974;2023-07-08T04:02:30;352.2;;;-146.1;100.0
45864;BME280;31579;52.354;16.974;2023-07-08T04:03:35;314.9;;;-146.1;100.0
45864;BME280;31579;52.354;16.974;2023-07-08T04:04:37;356.6;;;-146.1;100.0
45864;BME280;31579;52.354;16.974;2023-07-08T04:05:40;346.1;;;-146.1;100.0
45864;BME280;31579;52.354;16.974;2023-07-08T04:06:44;328.3;;;-146.1;100.0
45864;BME280;31579;52.354;16.974;2023-07-08T04:07:48;331.5;;;-146.1;100.0
45864;BME280;31579;52.354;16.974;2023-07-08T04:08:52;338.8;;;-146.1;100.0
45864;BME280;31579;52.354;16.974;2023-07-08T04:09:56;337.9;;;-146.1;100.0
45864;BME280;31579;52.354;16.974;2023-07-08T04:11:00;331.2;;;-146.1;100.0
45864;BME280;31579;52.354;16.974;2023-07-08T04:12:04;321.8;;;-146.1;100.0
45864;BME280;31579;52.354;16.974;2023-07-08T04:13:08;314.8;;;-146.1;100.0
45864;BME280;31579;52.354;16.974;2023-07-08T04:14:12;306.9;;;-146.1;100.0
45864;BME280;31579;52.354;16.974;2023-07-08T04:15:16;302.1;;;-146.1;100.0
45864;BME280;31579;52.354;16.974;2023-07-08T04:16:22;299.5;;;-146.1;100.0
45864;BME280;31579;52.354;16.974;2023-07-08T04:17:24;292.7;;;-146.1;100.0
45864;BME280;31579;52.354;16.974;2023-07-08T04:18:28;288.0;;;-146.1;100.0
45864;BME280;31579;52.354;16.974;2023-07-08T04:19:32;275.1;;;-146.1;100.0
45864;BME280;31579;52.354;16.974;2023-07-08T04:20:34;295.6;;;-146.1;100.0
45864;BME280;31579;52.354;16.974;2023-07-08T04:21:37;290.5;;;-146.1;100.0
45864;BME280;31579;52.354;16.974;2023-07-08T04:22:40;270.6;;;-146.1;100.0
45864;BME280;31579;52.354;16.974;2023-07-08T04:23:44;243.2;;;-146.1;100.0
45864;BME280;31579;52.354;16.974;2023-07-08T04:24:48;238.7;;;-146.1;100.0
45864;BME280;31579;52.354;16.974;2023-07-08T04:25:53;232.9;;;-146.1;100.0
45864;BME280;31579;52.354;16.974;2023-07-08T04:26:56;227.9;;;-146.1;100.0
45864;BME280;31579;52.354;16.974;2023-07-08T04:28:00;226.6;;;-146.1;100.0
45864;BME280;31579;52.354;16.974;2023-07-08T04:29:06;229.1;;;-146.1;100.0
45864;BME280;31579;52.354;16.974;2023-07-08T04:31:13;232.4;;;-146.1;100.0
45864;BME280;31579;52.354;16.974;2023-07-08T04:32:17;229.5;;;-146.1;100.0
45864;BME280;31579;52.354;16.974;2023-07-08T04:33:21;238.6;;;-146.1;100.0
45864;BME280;31579;52.354;16.974;2023-07-08T04:34:26;241.0;;;-146.1;100.0
45864;BME280;31579;52.354;16.974;2023-07-08T04:35:30;228.7;;;-146.1;100.0
45864;BME280;31579;52.354;16.974;2023-07-08T04:36:36;196.0;;;-146.1;100.0
45864;BME280;31579;52.354;16.974;2023-07-08T04:37:37;258.7;;;-146.1;100.0
45864;BME280;31579;52.354;16.974;2023-07-08T04:38:40;239.7;;;-146.1;100.0
45864;BME280;31579;52.354;16.974;2023-07-08T04:39:44;222.0;;;-146.1;100.0
45864;BME280;31579;52.354;16.974;2023-07-08T04:40:49;228.7;;;-146.1;100.0
45864;BME280;31579;52.354;16.974;2023-07-08T04:41:52;236.1;;;-146.1;100.0
45864;BME280;31579;52.354;16.974;2023-07-08T04:42:56;245.8;;;-146.1;100.0
45864;BME280;31579;52.354;16.974;2023-07-08T04:44:00;249.6;;;-146.1;100.0
45864;BME280;31579;52.354;16.974;2023-07-08T04:45:05;246.4;;;-146.1;100.0
45864;BME280;31579;52.354;16.974;2023-07-08T04:46:35;239.6;;;-146.1;100.0
45864;BME280;31579;52.354;16.974;2023-07-08T04:47:28;221.8;;;-146.1;100.0
45864;BME280;31579;52.354;16.974;2023-07-08T04:48:32;208.1;;;-146.1;100.0
45864;BME280;31579;52.354;16.974;2023-07-08T04:49:36;190.0;;;-146.1;100.0
45864;BME280;31579;52.354;16.974;2023-07-08T04:50:42;217.2;;;-146.1;100.0
45864;BME280;31579;52.354;16.974;2023-07-08T04:51:43;165.2;;;-146.1;100.0
45864;BME280;31579;52.354;16.974;2023-07-08T04:52:47;163.9;;;-146.1;100.0
45864;BME280;31579;52.354;16.974;2023-07-08T04:53:51;169.0;;;-146.1;100.0
45864;BME280;31579;52.354;16.974;2023-07-08T04:54:55;171.7;;;-146.1;100.0
45864;BME280;31579;52.354;16.974;2023-07-08T04:55:59;200.2;;;-146.1;100.0
45864;BME280;31579;52.354;16.974;2023-07-08T04:57:03;220.0;;;-146.1;100.0
45864;BME280;31579;52.354;16.974;2023-07-08T04:58:07;232.9;;;-146.1;100.0
45864;BME280;31579;52.354;16.974;2023-07-08T04:59:12;238.4;;;-146.1;100.0
45864;BME280;31579;52.354;16.974;2023-07-08T05:00:16;228.9;;;-146.1;100.0
45864;BME280;31579;52.354;16.974;2023-07-08T05:01:20;217.3;;;-146.1;100.0
45864;BME280;31579;52.354;16.974;2023-07-08T05:02:21;251.2;;;-146.1;100.0
45864;BME280;31579;52.354;16.974;2023-07-08T05:03:24;248.3;;;-146.1;100.0
45864;BME280;31579;52.354;16.974;2023-07-08T05:04:28;212.6;;;-146.1;100.0
45864;BME280;31579;52.354;16.974;2023-07-08T05:05:32;194.0;;;-146.1;100.0
45864;BME280;31579;52.354;16.974;2023-07-08T05:06:34;165.6;;;-146.1;100.0
45864;BME280;31579;52.354;16.974;2023-07-08T05:07:38;152.5;;;-146.1;100.0
45864;BME280;31579;52.354;16.974;2023-07-08T05:08:42;137.7;;;-146.1;100.0
45864;BME280;31579;52.354;16.974;2023-07-08T05:09:46;140.2;;;-146.1;100.0
45864;BME280;31579;52.354;16.974;2023-07-08T05:10:48;183.0;;;-146.1;100.0
45864;BME280;31579;52.354;16.974;2023-07-08T05:11:53;109.5;;;-146.1;100.0
45864;BME280;31579;52.354;16.974;2023-07-08T05:12:57;70.4;;;-146.1;100.0
45864;BME280;31579;52.354;16.974;2023-07-08T05:14:02;45.2;;;-146.1;100.0
45864;BME280;31579;52.354;16.974;2023-07-08T05:15:06;47.2;;;-146.1;100.0
45864;BME280;31579;52.354;16.974;2023-07-08T05:16:09;48.1;;;-146.1;100.0
45864;BME280;31579;52.354;16.974;2023-07-08T05:17:13;43.1;;;-146.1;100.0
45864;BME280;31579;52.354;16.974;2023-07-08T05:18:17;376.8;;;-146.1;100.0
45864;BME280;31579;52.354;16.974;2023-07-08T05:19:21;1161.4;;;-146.1;100.0
45864;BME280;31579;52.354;16.974;2023-07-08T05:20:25;1148.4;;;-146.1;100.0
45864;BME280;31579;52.354;16.974;2023-07-08T05:21:29;1153.0;;;-146.1;100.0
45864;BME280;31579;52.354;16.974;2023-07-08T05:22:30;1152.7;;;-146.1;100.0
45864;BME280;31579;52.354;16.974;2023-07-08T05:23:33;1145.2;;;-146.1;100.0
45864;BME280;31579;52.354;16.974;2023-07-08T05:24:51;1141.3;;;-146.1;100.0
45864;BME280;31579;52.354;16.974;2023-07-08T05:25:54;1126.8;;;-146.1;100.0
45864;BME280;31579;52.354;16.974;2023-07-08T05:26:58;1115.4;;;-146.1;100.0
45864;BME280;31579;52.354;16.974;2023-07-08T05:28:02;1108.0;;;-146.1;100.0
45864;BME280;31579;52.354;16.974;2023-07-08T05:29:06;1098.8;;;-146.1;100.0
45864;BME280;31579;52.354;16.974;2023-07-08T05:30:13;1091.1;;;-146.1;100.0
45864;BME280;31579;52.354;16.974;2023-07-08T05:31:14;1076.8;;;-146.1;100.0
45864;BME280;31579;52.354;16.974;2023-07-08T05:32:19;1074.3;;;-146.1;100.0
45864;BME280;31579;52.354;16.974;2023-07-08T05:33:23;1068.9;;;-146.1;100.0
45864;BME280;31579;52.354;16.974;2023-07-08T05:34:26;1055.2;;;-146.1;100.0
45864;BME280;31579;52.354;16.974;2023-07-08T05:35:31;1050.5;;;-146.1;100.0
45864;BME280;31579;52.354;16.974;2023-07-08T05:36:35;1039.2;;;-146.1;100.0
45864;BME280;31579;52.354;16.974;2023-07-08T05:37:39;1057.5;;;-146.1;100.0
45864;BME280;31579;52.354;16.974;2023-07-08T05:38:43;1049.4;;;-146.1;100.0
45864;BME280;31579;52.354;16.974;2023-07-08T05:39:46;1078.2;;;-146.1;100.0
45864;BME280;31579;52.354;16.974;2023-07-08T05:40:50;1079.0;;;-146.1;100.0
45864;BME280;31579;52.354;16.974;2023-07-08T05:41:51;1078.3;;;-146.1;100.0
45864;BME280;31579;52.354;16.974;2023-07-08T05:42:55;1041.3;;;-146.1;100.0
45864;BME280;31579;52.354;16.974;2023-07-08T05:43:57;1067.2;;;-146.1;100.0
45864;BME280;31579;52.354;16.974;2023-07-08T05:45:03;1047.7;;;-146.1;100.0
45864;BME280;31579;52.354;16.974;2023-07-08T05:46:07;1042.8;;;-146.1;100.0
45864;BME280;31579;52.354;16.974;2023-07-08T05:47:10;1027.8;;;-146.1;100.0
45864;BME280;31579;52.354;16.974;2023-07-08T05:48:14;1048.5;;;-146.1;100.0
45864;BME280;31579;52.354;16.974;2023-07-08T05:49:18;1052.2;;;-146.1;100.0
45864;BME280;31579;52.354;16.974;2023-07-08T05:50:22;1048.6;;;-146.1;100.0